Time;durP1;ratioP1;P1;durP2;ratioP2;P2;SDS_P1;SDS_P2;PMS_P1;PMS_P2;Temp;Humidity;BMP_temperature;BMP_pressure;BME280_temperature;BME280_humidity;BME280_pressure;Samples;Min_cycle;Max_cycle;Signal;HPM_P1;HPM_P2
2022/10/21 00:02:15;;;;;;;8.43;8.23;;;12.80;99.90;;;;;;5058040;28;20223;-78
2022/10/21 00:04:46;;;;;;;8.60;8.40;;;12.70;99.90;;;;;;5058511;28;20259;-78
2022/10/21 00:07:14;;;;;;;8.70;8.50;;;12.70;99.90;;;;;;5041834;28;20239;-78
2022/10/21 00:10:10;;;;;;;8.67;8.47;;;12.60;99.90;;;;;;5039471;28;20227;-79
2022/10/21 00:12:40;;;;;;;8.53;8.33;;;12.70;99.90;;;;;;5039172;28;20255;-79
2022/10/21 00:15:10;;;;;;;8.23;8.03;;;12.70;99.90;;;;;;5039885;28;20251;-79
2022/10/21 00:17:47;;;;;;;8.30;8.10;;;12.70;99.90;;;;;;5043042;28;20233;-78
2022/10/21 00:20:17;;;;;;;8.33;8.13;;;12.70;99.90;;;;;;5043085;28;20266;-78
2022/10/21 00:22:46;;;;;;;8.73;8.53;;;12.70;99.90;;;;;;5042482;28;20296;-81
2022/10/21 00:28:20;;;;;;;8.70;8.50;;;12.50;99.90;;;;;;5042258;28;20227;-78
2022/10/21 00:30:50;;;;;;;9.10;8.80;;;12.50;99.90;;;;;;5042639;28;20236;-78
2022/10/21 00:33:19;;;;;;;8.70;8.50;;;12.40;99.90;;;;;;5047388;28;20231;-78
2022/10/21 00:38:35;;;;;;;8.70;8.50;;;12.30;99.90;;;;;;5041492;28;20597;-78
2022/10/21 00:41:14;;;;;;;8.30;8.10;;;12.40;99.90;;;;;;5046198;28;20291;-78
2022/10/21 00:44:02;;;;;;;8.57;8.37;;;12.40;99.90;;;;;;5057972;28;20243;-78
2022/10/21 00:46:40;;;;;;;8.47;8.27;;;12.40;99.90;;;;;;5058025;28;20239;-78
2022/10/21 00:49:18;;;;;;;8.50;8.30;;;12.30;99.90;;;;;;5057996;28;20247;-77
2022/10/21 00:51:48;;;;;;;8.73;8.53;;;12.30;99.90;;;;;;5058152;28;20259;-77
2022/10/21 00:54:18;;;;;;;8.43;8.23;;;12.30;99.90;;;;;;5055962;28;20231;-79
2022/10/21 00:56:57;;;;;;;8.73;8.53;;;12.30;99.90;;;;;;5046507;28;20228;-79
2022/10/21 00:59:34;;;;;;;8.90;8.70;;;12.40;99.90;;;;;;5045168;28;20227;-79
2022/10/21 01:02:03;;;;;;;8.80;8.60;;;12.20;99.90;;;;;;5043772;28;20235;-79
2022/10/21 01:04:33;;;;;;;8.83;8.63;;;12.10;99.90;;;;;;5043482;28;20767;-79
2022/10/21 01:07:02;;;;;;;8.90;8.70;;;12.00;99.90;;;;;;5042271;28;20279;-80
2022/10/21 01:09:32;;;;;;;8.93;8.73;;;12.00;99.90;;;;;;5039253;28;20239;-78
2022/10/21 01:12:03;;;;;;;8.53;8.33;;;12.00;99.90;;;;;;5037308;28;20235;-79
2022/10/21 01:14:53;;;;;;;8.87;8.67;;;12.00;99.90;;;;;;5038062;28;20286;-79
2022/10/21 01:17:36;;;;;;;8.90;8.70;;;12.00;99.90;;;;;;5037700;28;20251;-79
2022/10/21 01:20:42;;;;;;;8.80;8.60;;;11.90;99.90;;;;;;5038888;28;20239;-79
2022/10/21 01:24:13;;;;;;;9.20;8.90;;;11.80;99.90;;;;;;5040364;28;20282;-79
2022/10/21 01:27:22;;;;;;;9.10;8.83;;;11.80;99.90;;;;;;5043140;28;20263;-79
2022/10/21 01:30:27;;;;;;;8.80;8.60;;;11.70;99.90;;;;;;5005097;28;20239;-79
2022/10/21 01:33:38;;;;;;;9.00;8.80;;;11.70;99.90;;;;;;5038312;28;20246;-78
2022/10/21 01:36:19;;;;;;;8.80;8.60;;;11.60;99.90;;;;;;5036401;28;20235;-79
2022/10/21 01:39:02;;;;;;;8.90;8.70;;;11.50;99.90;;;;;;5036746;28;20342;-79
2022/10/21 01:41:36;;;;;;;8.73;8.53;;;11.50;99.90;;;;;;5037384;28;20255;-78
2022/10/21 01:44:13;;;;;;;9.03;8.83;;;11.40;99.90;;;;;;5037249;28;20243;-78
2022/10/21 01:46:44;;;;;;;9.20;8.90;;;11.40;99.90;;;;;;5037541;28;20235;-78
2022/10/21 01:49:20;;;;;;;8.60;8.40;;;11.40;99.90;;;;;;5037993;28;20227;-78
2022/10/21 01:51:48;;;;;;;8.80;8.60;;;11.30;99.90;;;;;;5037792;28;20223;-78
2022/10/21 01:54:21;;;;;;;8.80;8.60;;;11.30;99.90;;;;;;5037317;28;20235;-77
2022/10/21 01:56:50;;;;;;;8.60;8.40;;;11.30;99.90;;;;;;5036570;28;20238;-78
2022/10/21 01:59:20;;;;;;;8.63;8.43;;;11.20;99.90;;;;;;5036255;28;20241;-79
2022/10/21 02:01:49;;;;;;;8.67;8.47;;;11.20;99.90;;;;;;5036560;28;20219;-78
2022/10/21 02:04:19;;;;;;;9.23;8.93;;;11.20;99.90;;;;;;5036807;28;20231;-78
2022/10/21 02:06:47;;;;;;;9.00;8.70;;;11.20;99.90;;;;;;5037981;28;20238;-78
2022/10/21 02:09:14;;;;;;;9.13;8.83;;;11.20;99.90;;;;;;5036927;28;20292;-78
2022/10/21 02:11:46;;;;;;;9.10;8.80;;;11.20;99.90;;;;;;5036602;28;20299;-79
2022/10/21 02:14:18;;;;;;;8.80;8.60;;;11.20;99.90;;;;;;5039056;28;20242;-79
2022/10/21 02:16:50;;;;;;;9.00;8.77;;;11.20;99.90;;;;;;5043959;28;20239;-78
2022/10/21 02:19:21;;;;;;;9.10;8.80;;;11.20;99.90;;;;;;5040457;28;20294;-78
2022/10/21 02:21:52;;;;;;;8.97;8.77;;;11.20;99.90;;;;;;5038764;28;20319;-78
2022/10/21 02:24:28;;;;;;;9.00;8.70;;;11.20;99.90;;;;;;5036644;28;20327;-78
2022/10/21 02:26:56;;;;;;;8.97;8.77;;;11.20;99.90;;;;;;5037382;28;20242;-78
2022/10/21 02:29:28;;;;;;;8.93;8.70;;;11.20;99.90;;;;;;5039097;28;20317;-78
2022/10/21 02:32:20;;;;;;;9.17;8.87;;;11.20;99.90;;;;;;5038551;28;20232;-78
2022/10/21 02:35:06;;;;;;;8.77;8.57;;;11.10;99.90;;;;;;5038573;28;20311;-79
2022/10/21 02:37:45;;;;;;;9.00;8.77;;;11.10;99.90;;;;;;5036987;28;20301;-79
2022/10/21 02:40:18;;;;;;;8.90;8.70;;;11.10;99.90;;;;;;5036399;28;20262;-79
2022/10/21 02:42:51;;;;;;;8.70;8.50;;;11.20;99.90;;;;;;5035880;28;20226;-78
2022/10/21 02:45:19;;;;;;;8.60;8.40;;;11.20;99.90;;;;;;5036848;28;20227;-79
2022/10/21 02:47:49;;;;;;;8.87;8.67;;;11.20;99.90;;;;;;5037597;28;20238;-78
2022/10/21 02:50:19;;;;;;;8.60;8.40;;;11.20;99.90;;;;;;5037655;28;20277;-79
2022/10/21 02:52:50;;;;;;;8.40;8.20;;;11.20;99.90;;;;;;5037134;28;20243;-79
2022/10/21 02:55:18;;;;;;;8.67;8.47;;;11.20;99.90;;;;;;5037061;28;20224;-78
2022/10/21 02:57:45;;;;;;;8.50;8.30;;;11.20;99.90;;;;;;5038157;28;20263;-78
2022/10/21 03:00:17;;;;;;;8.90;8.70;;;11.20;99.90;;;;;;5037386;28;20259;-78
2022/10/21 03:02:45;;;;;;;8.60;8.40;;;11.20;99.90;;;;;;5038147;28;20283;-78
2022/10/21 03:05:12;;;;;;;8.43;8.23;;;11.20;99.90;;;;;;5038926;28;20294;-79
2022/10/21 03:07:41;;;;;;;8.47;8.27;;;11.20;99.90;;;;;;5044461;28;20236;-78
2022/10/21 03:10:09;;;;;;;8.30;8.10;;;11.20;99.90;;;;;;5051833;28;20283;-79
2022/10/21 03:12:37;;;;;;;8.53;8.33;;;11.30;99.90;;;;;;5037456;28;20304;-79
2022/10/21 03:15:05;;;;;;;8.50;8.30;;;11.30;99.90;;;;;;5036961;28;20318;-79
2022/10/21 03:17:33;;;;;;;8.30;8.10;;;11.30;99.90;;;;;;5036007;28;20261;-79
2022/10/21 03:20:00;;;;;;;8.20;8.00;;;11.30;99.90;;;;;;5035509;28;20470;-79
2022/10/21 03:22:28;;;;;;;8.03;7.83;;;11.30;99.90;;;;;;5052629;28;20790;-79
2022/10/21 03:24:58;;;;;;;7.87;7.67;;;11.30;99.90;;;;;;5055472;28;20234;-79
2022/10/21 03:27:26;;;;;;;7.67;7.47;;;11.30;99.90;;;;;;5046788;28;20253;-79
2022/10/21 03:29:54;;;;;;;8.13;7.93;;;11.30;99.90;;;;;;5047780;28;20231;-79
2022/10/21 03:32:21;;;;;;;7.93;7.73;;;11.30;99.90;;;;;;5055397;28;20313;-79
2022/10/21 03:34:49;;;;;;;8.27;8.07;;;11.30;99.90;;;;;;5055567;28;20237;-79
2022/10/21 03:37:19;;;;;;;8.23;8.03;;;11.40;99.90;;;;;;5055613;28;20295;-79
2022/10/21 03:39:49;;;;;;;8.57;8.37;;;11.30;99.90;;;;;;5055738;28;20230;-79
2022/10/21 03:42:18;;;;;;;8.40;8.20;;;11.40;99.90;;;;;;5055464;28;20318;-79
2022/10/21 03:44:46;;;;;;;7.97;7.77;;;11.40;99.90;;;;;;5070185;28;20249;-79
2022/10/21 03:47:15;;;;;;;8.30;8.10;;;11.30;99.90;;;;;;5059825;28;20227;-80
2022/10/21 03:49:46;;;;;;;8.20;8.00;;;11.30;99.90;;;;;;5051665;28;20261;-80
2022/10/21 03:52:14;;;;;;;8.37;8.17;;;11.30;99.90;;;;;;5060548;28;20239;-80
2022/10/21 03:54:50;;;;;;;8.10;7.90;;;11.30;99.90;;;;;;5060704;28;20270;-79
2022/10/21 03:57:22;;;;;;;8.30;8.10;;;11.30;99.90;;;;;;5067549;28;20718;-79
2022/10/21 03:59:52;;;;;;;8.70;8.50;;;11.40;99.90;;;;;;5059166;28;20688;-80
2022/10/21 04:02:23;;;;;;;8.70;8.50;;;11.30;99.90;;;;;;5062508;28;20249;-80
2022/10/21 04:04:51;;;;;;;8.70;8.50;;;11.30;99.90;;;;;;5063008;28;20284;-80
2022/10/21 04:07:21;;;;;;;8.80;8.60;;;11.40;99.90;;;;;;5070495;28;20241;-80
2022/10/21 04:09:50;;;;;;;8.60;8.40;;;11.40;99.90;;;;;;5061582;28;20246;-81
2022/10/21 04:12:33;;;;;;;8.50;8.30;;;11.40;99.90;;;;;;5062868;28;20273;-80
2022/10/21 04:15:09;;;;;;;8.50;8.30;;;11.40;99.90;;;;;;5055027;28;20257;-80
2022/10/21 04:17:38;;;;;;;8.40;8.20;;;11.50;99.90;;;;;;5068262;28;20292;-80
2022/10/21 04:20:08;;;;;;;8.27;8.07;;;11.40;99.90;;;;;;5069402;28;20227;-80
2022/10/21 04:22:37;;;;;;;8.70;8.50;;;11.50;99.90;;;;;;5055496;28;20246;-80
2022/10/21 04:25:07;;;;;;;8.57;8.37;;;11.50;99.90;;;;;;5046582;28;20223;-80
2022/10/21 04:27:44;;;;;;;8.70;8.50;;;11.50;99.90;;;;;;5054292;28;20246;-80
2022/10/21 04:30:14;;;;;;;8.80;8.60;;;11.50;99.90;;;;;;5075773;28;20223;-79
2022/10/21 04:32:46;;;;;;;8.40;8.20;;;11.50;99.90;;;;;;5082151;28;20241;-78
2022/10/21 04:35:14;;;;;;;8.40;8.20;;;11.60;99.90;;;;;;5082059;28;20211;-80
2022/10/21 04:37:52;;;;;;;8.20;8.00;;;11.60;99.90;;;;;;5081848;28;20242;-78
2022/10/21 04:40:23;;;;;;;8.10;7.90;;;11.70;99.90;;;;;;5076476;28;20211;-79
2022/10/21 04:42:58;;;;;;;7.87;7.67;;;11.70;99.90;;;;;;5058861;28;20230;-79
2022/10/21 04:45:28;;;;;;;7.80;7.60;;;11.70;99.90;;;;;;5060751;28;20235;-79
2022/10/21 04:47:57;;;;;;;8.20;8.00;;;11.80;99.90;;;;;;5070789;28;20222;-78
2022/10/21 04:50:26;;;;;;;8.27;8.07;;;11.80;99.90;;;;;;5076658;28;20227;-79
2022/10/21 04:52:56;;;;;;;8.23;8.03;;;11.80;99.90;;;;;;5073063;28;20234;-80
2022/10/21 04:55:26;;;;;;;8.20;8.00;;;11.80;99.90;;;;;;5063526;28;20261;-80
2022/10/21 04:58:04;;;;;;;8.20;8.00;;;11.80;99.90;;;;;;5062272;28;20226;-80
2022/10/21 05:00:33;;;;;;;8.50;8.30;;;11.80;99.90;;;;;;5058506;28;20265;-79
2022/10/21 05:03:03;;;;;;;8.60;8.40;;;11.90;99.90;;;;;;5056427;28;20242;-82
2022/10/21 05:05:32;;;;;;;8.30;8.10;;;11.90;99.90;;;;;;5061776;28;20719;-80
2022/10/21 05:08:01;;;;;;;8.30;8.10;;;11.90;99.90;;;;;;5061808;28;20234;-80
2022/10/21 05:10:31;;;;;;;8.50;8.30;;;11.90;99.90;;;;;;5061292;28;20238;-80
2022/10/21 05:15:50;;;;;;;8.33;8.13;;;11.90;99.90;;;;;;5062157;28;20310;-80
2022/10/21 05:18:17;;;;;;;8.40;8.20;;;11.90;99.90;;;;;;5063346;28;20231;-80
2022/10/21 05:20:55;;;;;;;8.40;8.20;;;11.90;99.90;;;;;;5062998;28;20242;-81
2022/10/21 05:23:25;;;;;;;8.30;8.10;;;11.90;99.90;;;;;;5060717;28;20237;-81
2022/10/21 05:26:03;;;;;;;8.50;8.30;;;11.90;99.90;;;;;;5056624;28;20273;-80
2022/10/21 05:28:32;;;;;;;8.10;7.90;;;11.90;99.90;;;;;;5117102;22;20394;-76
2022/10/21 05:31:00;;;;;;;8.13;7.93;;;11.90;99.90;;;;;;5058609;28;20242;-78
2022/10/21 05:33:27;;;;;;;8.30;8.10;;;11.90;99.90;;;;;;5057981;28;20294;-79
2022/10/21 05:36:00;;;;;;;8.80;8.60;;;11.90;99.90;;;;;;5067801;28;20226;-78
2022/10/21 05:38:28;;;;;;;9.20;8.90;;;11.90;99.90;;;;;;5066345;28;20235;-78
2022/10/21 05:40:56;;;;;;;8.97;8.73;;;11.90;99.90;;;;;;5059880;28;20241;-78
2022/10/21 05:43:24;;;;;;;9.30;9.00;;;12.00;99.90;;;;;;5060061;28;20298;-78
2022/10/21 05:45:53;;;;;;;9.23;8.93;;;12.00;99.90;;;;;;5060377;28;20231;-78
2022/10/21 05:48:21;;;;;;;9.20;8.90;;;12.00;99.90;;;;;;5060001;28;20286;-78
2022/10/21 05:50:52;;;;;;;9.10;8.80;;;12.10;99.90;;;;;;5046384;28;20231;-78
2022/10/21 05:53:19;;;;;;;9.13;8.83;;;12.20;99.90;;;;;;5040255;28;20231;-78
2022/10/21 05:55:55;;;;;;;9.27;8.97;;;12.20;99.90;;;;;;5040320;28;20240;-79
2022/10/21 05:58:24;;;;;;;9.13;8.83;;;12.20;99.90;;;;;;5042664;28;20234;-78
2022/10/21 06:00:54;;;;;;;9.17;8.87;;;12.20;99.90;;;;;;5048443;28;20226;-78
2022/10/21 06:03:22;;;;;;;8.90;8.70;;;12.30;99.90;;;;;;5048215;28;20239;-78
2022/10/21 06:05:50;;;;;;;9.03;8.80;;;12.30;99.90;;;;;;5045889;28;20322;-78
2022/10/21 06:08:18;;;;;;;9.10;8.83;;;12.30;99.90;;;;;;5042723;28;20298;-79
2022/10/21 06:10:46;;;;;;;9.00;8.80;;;12.30;99.90;;;;;;5041923;28;20405;-78
2022/10/21 06:13:13;;;;;;;8.97;8.77;;;12.40;99.90;;;;;;5051353;28;20243;-79
2022/10/21 06:15:41;;;;;;;8.93;8.73;;;12.40;99.90;;;;;;5062450;28;20322;-79
2022/10/21 06:18:10;;;;;;;8.73;8.53;;;12.40;99.90;;;;;;5062333;28;20246;-78
2022/10/21 06:20:37;;;;;;;8.80;8.60;;;12.40;99.90;;;;;;5061063;28;20219;-79
2022/10/21 06:23:04;;;;;;;8.90;8.70;;;12.40;99.90;;;;;;5061158;28;20227;-78
2022/10/21 06:25:32;;;;;;;8.60;8.40;;;12.40;99.90;;;;;;5062399;28;20235;-78
2022/10/21 06:27:59;;;;;;;9.00;8.80;;;12.40;99.90;;;;;;5060584;28;20242;-78
2022/10/21 06:30:27;;;;;;;8.80;8.60;;;12.40;99.90;;;;;;5062240;28;20247;-78
2022/10/21 06:32:54;;;;;;;8.67;8.47;;;12.40;99.90;;;;;;5061955;28;20310;-78
2022/10/21 06:35:23;;;;;;;8.90;8.70;;;12.40;99.90;;;;;;5059563;28;20326;-78
2022/10/21 06:37:51;;;;;;;8.80;8.60;;;12.40;99.90;;;;;;5059174;28;20238;-79
2022/10/21 06:40:18;;;;;;;8.80;8.60;;;12.50;99.90;;;;;;5059621;28;20261;-78
2022/10/21 06:42:46;;;;;;;8.83;8.63;;;12.50;99.90;;;;;;5059634;28;20313;-78
2022/10/21 06:45:13;;;;;;;8.73;8.53;;;12.50;99.90;;;;;;5059010;28;20226;-79
2022/10/21 06:47:41;;;;;;;8.70;8.50;;;12.50;99.90;;;;;;5059411;28;20249;-78
2022/10/21 06:50:09;;;;;;;8.90;8.70;;;12.50;99.90;;;;;;5059922;28;20700;-79
2022/10/21 06:52:38;;;;;;;9.03;8.80;;;12.60;99.90;;;;;;5061043;28;20229;-79
2022/10/21 06:55:06;;;;;;;8.70;8.50;;;12.50;99.90;;;;;;5061175;28;20226;-79
2022/10/21 06:57:34;;;;;;;8.40;8.20;;;12.60;99.90;;;;;;5060409;28;20245;-80
2022/10/21 07:00:01;;;;;;;8.70;8.50;;;12.60;99.90;;;;;;5060485;28;20229;-79
2022/10/21 07:02:29;;;;;;;8.90;8.70;;;12.60;99.90;;;;;;5062184;28;20227;-80
2022/10/21 07:04:57;;;;;;;8.77;8.57;;;12.60;99.90;;;;;;5062429;28;20261;-80
2022/10/21 07:07:24;;;;;;;8.90;8.70;;;12.60;99.90;;;;;;5048531;28;20238;-79
2022/10/21 07:09:56;;;;;;;8.70;8.50;;;12.60;99.90;;;;;;5055190;28;20239;-79
2022/10/21 07:12:24;;;;;;;8.67;8.47;;;12.70;99.90;;;;;;5061311;28;20238;-80
2022/10/21 07:14:53;;;;;;;8.50;8.30;;;12.70;99.90;;;;;;5061051;28;20298;-79
2022/10/21 07:17:20;;;;;;;8.30;8.10;;;12.70;99.90;;;;;;5060166;28;20226;-79
2022/10/21 07:19:48;;;;;;;8.43;8.23;;;12.60;99.90;;;;;;5060460;28;20286;-79
2022/10/21 07:22:16;;;;;;;8.53;8.33;;;12.70;99.90;;;;;;5059768;28;20218;-79
2022/10/21 07:24:44;;;;;;;8.70;8.50;;;12.70;99.90;;;;;;5060097;28;20292;-79
2022/10/21 07:27:13;;;;;;;9.10;8.80;;;12.70;99.90;;;;;;5062288;28;20230;-79
2022/10/21 07:29:40;;;;;;;8.70;8.50;;;12.70;99.90;;;;;;5062672;28;20231;-80
2022/10/21 07:32:08;;;;;;;8.40;8.20;;;12.70;99.90;;;;;;5061933;28;20287;-78
2022/10/21 07:34:35;;;;;;;8.87;8.63;;;12.70;99.90;;;;;;5061366;28;20245;-79
2022/10/21 07:37:03;;;;;;;9.07;8.77;;;12.70;99.90;;;;;;5062018;28;20234;-79
2022/10/21 07:39:31;;;;;;;9.07;8.77;;;12.70;99.90;;;;;;5047954;28;20254;-79
2022/10/21 07:41:59;;;;;;;8.70;8.50;;;12.60;99.90;;;;;;5051527;28;20319;-79
2022/10/21 07:44:27;;;;;;;8.80;8.60;;;12.60;99.90;;;;;;5050701;28;20294;-79
2022/10/21 07:46:56;;;;;;;8.53;8.33;;;12.70;99.90;;;;;;5043230;28;20240;-79
2022/10/21 07:49:24;;;;;;;9.10;8.80;;;12.70;99.90;;;;;;5043274;28;20219;-80
2022/10/21 07:51:53;;;;;;;8.63;8.43;;;12.70;99.90;;;;;;5043475;28;20359;-79
2022/10/21 07:54:21;;;;;;;8.90;8.70;;;12.80;99.90;;;;;;5046177;28;20415;-80
2022/10/21 07:56:51;;;;;;;8.80;8.60;;;12.80;99.90;;;;;;5060252;28;20235;-77
2022/10/21 07:59:21;;;;;;;8.87;8.60;;;12.90;99.90;;;;;;5051542;28;20237;-79
2022/10/21 08:01:51;;;;;;;9.00;8.70;;;13.00;99.90;;;;;;5049126;28;20230;-78
2022/10/21 08:04:23;;;;;;;8.70;8.50;;;13.10;99.90;;;;;;5058408;28;20235;-78
2022/10/21 08:06:51;;;;;;;8.70;8.50;;;13.10;99.90;;;;;;5059103;28;20246;-78
2022/10/21 08:09:18;;;;;;;8.60;8.40;;;13.20;99.90;;;;;;5059585;28;20245;-79
2022/10/21 08:11:46;;;;;;;8.67;8.47;;;13.20;99.90;;;;;;5057916;28;20220;-79
2022/10/21 08:14:14;;;;;;;9.00;8.70;;;13.20;99.90;;;;;;5054189;28;20235;-80
2022/10/21 08:16:42;;;;;;;8.70;8.50;;;13.10;99.90;;;;;;5056536;28;20249;-78
2022/10/21 08:19:19;;;;;;;8.60;8.40;;;13.10;99.90;;;;;;5062779;28;20237;-79
2022/10/21 08:21:46;;;;;;;8.70;8.47;;;13.20;99.90;;;;;;5063208;28;20225;-78
2022/10/21 08:24:14;;;;;;;8.80;8.60;;;13.20;99.90;;;;;;5063546;28;20318;-81
2022/10/21 08:26:41;;;;;;;8.50;8.30;;;13.30;99.90;;;;;;5061997;28;20318;-79
2022/10/21 08:29:09;;;;;;;8.43;8.23;;;13.40;99.90;;;;;;5061767;28;20231;-78
2022/10/21 08:31:36;;;;;;;8.33;8.13;;;13.40;99.90;;;;;;5063582;28;20225;-80
2022/10/21 08:34:04;;;;;;;8.50;8.30;;;13.40;99.90;;;;;;5057523;28;20337;-79
2022/10/21 08:36:33;;;;;;;8.60;8.40;;;13.40;99.90;;;;;;5063946;28;20235;-79
2022/10/21 08:39:01;;;;;;;8.90;8.60;;;13.30;99.90;;;;;;5063630;28;20227;-79
2022/10/21 08:41:53;;;;;;;8.63;8.43;;;13.30;99.90;;;;;;5063984;28;20227;-79
2022/10/21 08:44:36;;;;;;;8.37;8.17;;;13.40;99.90;;;;;;5060205;28;20241;-79
2022/10/21 08:47:12;;;;;;;8.33;8.13;;;13.30;99.90;;;;;;5052693;28;20255;-79
2022/10/21 08:50:00;;;;;;;8.20;8.00;;;13.30;99.90;;;;;;5044901;28;20235;-80
2022/10/21 08:52:39;;;;;;;8.53;8.33;;;13.40;99.90;;;;;;5056874;28;20291;-79
2022/10/21 08:55:17;;;;;;;8.70;8.50;;;13.30;99.90;;;;;;5062122;28;20334;-78
2022/10/21 08:57:45;;;;;;;8.30;8.10;;;13.40;99.90;;;;;;5057532;28;20227;-80
2022/10/21 09:00:18;;;;;;;8.53;8.33;;;13.50;99.90;;;;;;5047744;28;20227;-79
2022/10/21 09:03:14;;;;;;;8.20;8.00;;;13.50;99.90;;;;;;5061737;28;20298;-82
2022/10/21 09:06:04;;;;;;;8.30;8.10;;;13.60;99.90;;;;;;5061333;28;20233;-80
2022/10/21 09:08:48;;;;;;;8.60;8.40;;;13.60;99.90;;;;;;5070141;28;20273;-81
2022/10/21 09:11:28;;;;;;;8.60;8.40;;;13.50;99.90;;;;;;5062384;28;20234;-79
2022/10/21 09:14:40;;;;;;;8.47;8.27;;;13.50;99.90;;;;;;5062705;28;20333;-81
2022/10/21 09:17:27;;;;;;;8.60;8.40;;;13.50;99.90;;;;;;5064239;28;20329;-81
2022/10/21 09:20:04;;;;;;;8.60;8.40;;;13.50;99.90;;;;;;5065385;28;20231;-80
2022/10/21 09:22:51;;;;;;;8.47;8.27;;;13.50;99.90;;;;;;5064900;28;20318;-80
2022/10/21 09:25:33;;;;;;;8.60;8.40;;;13.50;99.90;;;;;;5066581;28;20214;-81
2022/10/21 09:28:09;;;;;;;8.90;8.70;;;13.50;99.90;;;;;;5056558;28;20302;-82
2022/10/21 09:30:36;;;;;;;8.70;8.50;;;13.50;99.90;;;;;;5064261;28;20290;-80
2022/10/21 09:33:11;;;;;;;8.70;8.50;;;13.50;99.90;;;;;;5063076;28;20265;-81
2022/10/21 09:35:45;;;;;;;8.40;8.20;;;13.60;99.90;;;;;;5058800;28;20284;-82
2022/10/21 09:38:19;;;;;;;8.60;8.40;;;13.60;99.90;;;;;;5057595;28;20381;-81
2022/10/21 09:40:57;;;;;;;8.50;8.30;;;13.70;99.90;;;;;;5052398;28;20234;-80
2022/10/21 09:43:27;;;;;;;8.63;8.43;;;13.70;99.90;;;;;;5061330;28;20238;-80
2022/10/21 09:45:55;;;;;;;8.37;8.17;;;13.70;99.90;;;;;;5060428;28;20322;-81
2022/10/21 09:48:37;;;;;;;8.53;8.33;;;13.70;99.90;;;;;;5063280;28;20244;-80
2022/10/21 09:51:11;;;;;;;8.70;8.50;;;13.80;99.90;;;;;;5062129;28;20230;-79
2022/10/21 09:53:45;;;;;;;8.43;8.23;;;13.80;99.90;;;;;;5064048;28;20242;-80
2022/10/21 09:56:23;;;;;;;8.40;8.20;;;13.80;99.90;;;;;;5063560;28;20249;-81
2022/10/21 09:59:03;;;;;;;8.20;8.00;;;13.80;99.90;;;;;;5045311;28;20250;-82
2022/10/21 10:01:31;;;;;;;8.00;7.80;;;13.70;99.90;;;;;;5044999;28;20246;-83
2022/10/21 10:04:01;;;;;;;8.40;8.20;;;13.70;99.90;;;;;;5044637;28;20224;-81
2022/10/21 10:06:37;;;;;;;8.40;8.20;;;13.70;99.90;;;;;;5043363;28;20283;-81
2022/10/21 10:09:12;;;;;;;8.63;8.43;;;13.60;99.90;;;;;;5043340;28;20227;-80
2022/10/21 10:11:52;;;;;;;8.60;8.40;;;13.60;99.90;;;;;;5042717;28;20959;-79
2022/10/21 10:14:30;;;;;;;8.70;8.50;;;13.60;99.90;;;;;;5043634;28;20227;-82
2022/10/21 10:17:17;;;;;;;8.33;8.13;;;13.60;99.90;;;;;;5042335;28;20271;-82
2022/10/21 10:20:22;;;;;;;8.60;8.40;;;13.60;99.90;;;;;;5061592;28;20233;-84
2022/10/21 10:23:09;;;;;;;8.27;8.07;;;13.60;99.90;;;;;;5041980;28;20242;-82
2022/10/21 10:25:39;;;;;;;8.20;8.00;;;13.60;99.90;;;;;;5042567;28;20318;-83
2022/10/21 10:28:23;;;;;;;8.40;8.20;;;13.60;99.90;;;;;;5044115;28;20261;-85
2022/10/21 10:30:54;;;;;;;8.30;8.10;;;13.50;99.90;;;;;;5053294;28;20207;-84
2022/10/21 10:33:25;;;;;;;8.50;8.30;;;13.60;99.90;;;;;;5060446;28;20300;-82
2022/10/21 10:36:00;;;;;;;8.53;8.33;;;13.60;99.90;;;;;;5069956;28;20257;-81
2022/10/21 10:38:34;;;;;;;8.37;8.17;;;13.60;99.90;;;;;;5061211;28;20278;-81
2022/10/21 10:41:08;;;;;;;8.40;8.20;;;13.70;99.90;;;;;;5062069;28;20234;-81
2022/10/21 10:43:47;;;;;;;8.23;8.03;;;13.70;99.90;;;;;;5061630;28;20258;-82
2022/10/21 10:46:24;;;;;;;8.40;8.20;;;13.80;99.90;;;;;;5061058;28;20301;-81
2022/10/21 10:48:54;;;;;;;7.87;7.67;;;13.90;99.90;;;;;;5061259;28;20238;-82
2022/10/21 10:51:31;;;;;;;8.27;8.07;;;14.00;99.90;;;;;;5061049;28;20250;-81
2022/10/21 10:54:19;;;;;;;7.93;7.73;;;14.10;99.90;;;;;;5060706;28;20309;-81
2022/10/21 10:56:54;;;;;;;7.80;7.60;;;14.10;99.90;;;;;;5060418;28;20235;-82
2022/10/21 10:59:43;;;;;;;8.33;8.13;;;14.10;99.90;;;;;;5060047;28;20241;-81
2022/10/21 11:02:32;;;;;;;8.60;8.40;;;14.20;99.90;;;;;;5061001;28;20265;-80
2022/10/21 11:05:22;;;;;;;8.60;8.40;;;14.30;99.90;;;;;;5060681;28;20321;-83
2022/10/21 11:07:55;;;;;;;8.67;8.47;;;14.40;99.90;;;;;;5054486;28;20273;-81
2022/10/21 11:10:35;;;;;;;8.60;8.40;;;14.40;99.90;;;;;;5060387;28;20249;-81
2022/10/21 11:13:05;;;;;;;8.20;8.00;;;14.40;99.90;;;;;;5060695;28;20230;-81
2022/10/21 11:16:00;;;;;;;8.07;7.87;;;14.20;99.90;;;;;;5061015;28;20241;-83
2022/10/21 11:18:40;;;;;;;7.93;7.73;;;14.10;99.90;;;;;;5061309;28;20321;-83
2022/10/21 11:21:28;;;;;;;8.13;7.93;;;14.20;99.90;;;;;;5076558;28;20320;-83
2022/10/21 11:24:22;;;;;;;8.10;7.90;;;14.10;99.90;;;;;;5060297;28;20234;-83
2022/10/21 11:29:48;;;;;;;8.17;7.97;;;14.20;99.90;;;;;;5069827;22;20235;-84
2022/10/21 11:32:34;;;;;;;8.00;7.80;;;14.20;99.90;;;;;;5030034;28;20227;-85
2022/10/21 11:35:22;;;;;;;7.70;7.50;;;14.30;99.90;;;;;;5037600;28;20246;-84
2022/10/21 11:38:26;;;;;;;7.90;7.70;;;14.40;99.90;;;;;;5027298;28;20232;-82
2022/10/21 11:41:14;;;;;;;7.82;7.63;;;14.60;99.90;;;;;;5023996;28;20228;-82
2022/10/21 11:43:57;;;;;;;8.10;7.90;;;14.90;99.90;;;;;;5025754;28;20216;-82
2022/10/21 11:47:04;;;;;;;8.25;8.05;;;15.10;99.90;;;;;;5024206;28;20239;-82
2022/10/21 11:49:54;;;;;;;8.20;8.00;;;15.30;99.90;;;;;;5036806;28;20235;-83
2022/10/21 11:52:43;;;;;;;8.07;7.88;;;15.40;99.90;;;;;;5040755;28;20255;-82
2022/10/21 12:04:14;;;;;;;8.27;8.07;;;15.90;99.90;;;;;;5021306;28;20232;-86
2022/10/21 12:23:09;;;;;;;8.45;8.25;;;16.50;99.90;;;;;;5065017;28;20234;-86
2022/10/21 12:49:35;;;;;;;8.73;8.52;;;17.30;99.90;;;;;;5019648;28;20228;-86
2022/10/21 13:22:26;;;;;;;9.30;9.00;;;19.60;99.90;;;;;;4824136;29;20787;-85
2022/10/21 14:06:12;;;;;;;9.20;8.90;;;19.10;99.90;;;;;;5057938;28;20330;-85
2022/10/21 14:09:32;;;;;;;;;;;;;;;;;;;;;
2022/10/21 14:32:14;;;;;;;8.80;8.60;;;18.50;99.90;;;;;;5062000;28;20215;-85
2022/10/21 14:39:01;;;;;;;9.27;8.98;;;18.60;99.90;;;;;;4982016;28;20228;-86
2022/10/21 14:41:56;;;;;;;9.82;9.52;;;18.70;99.90;;;;;;4998453;28;20232;-85
2022/10/21 14:44:44;;;;;;;9.50;9.20;;;18.70;99.90;;;;;;5060336;28;20223;-85
2022/10/21 14:51:43;;;;;;;9.10;8.80;;;18.50;99.90;;;;;;5059270;28;20231;-85
2022/10/21 14:55:23;;;;;;;8.85;8.65;;;18.40;99.90;;;;;;5060321;28;20324;-85
2022/10/21 15:11:59;;;;;;;8.43;8.23;;;18.50;99.90;;;;;;4930237;28;20326;-84
2022/10/21 15:17:18;;;;;;;8.40;8.20;;;18.60;99.90;;;;;;5044169;28;20238;-85
2022/10/21 15:19:51;;;;;;;8.32;8.13;;;18.70;99.90;;;;;;5047285;28;20234;-85
2022/10/21 15:22:32;;;;;;;8.50;8.30;;;18.70;99.90;;;;;;5040812;28;20234;-85
2022/10/21 15:25:09;;;;;;;8.50;8.30;;;18.70;99.90;;;;;;5042080;28;20246;-84
2022/10/21 15:27:48;;;;;;;8.02;7.82;;;18.70;99.90;;;;;;5054304;28;20234;-84
2022/10/21 15:30:27;;;;;;;8.25;8.05;;;18.70;99.90;;;;;;5068878;28;20300;-84
2022/10/21 15:32:58;;;;;;;8.10;7.90;;;18.70;99.90;;;;;;5064668;28;20223;-85
2022/10/21 15:35:28;;;;;;;7.95;7.75;;;18.70;99.90;;;;;;5062280;28;20258;-85
2022/10/21 15:40:41;;;;;;;8.10;7.90;;;18.70;99.90;;;;;;5058426;28;20332;-84
2022/10/21 15:43:12;;;;;;;8.15;7.95;;;18.60;99.90;;;;;;5057987;28;20254;-85
2022/10/21 15:45:41;;;;;;;7.90;7.70;;;18.50;99.90;;;;;;5052532;28;20304;-85
2022/10/21 15:50:58;;;;;;;7.93;7.72;;;18.40;99.90;;;;;;5056934;28;20231;-85
2022/10/21 15:53:25;;;;;;;8.02;7.82;;;18.40;99.90;;;;;;5043336;28;20223;-85
2022/10/21 15:55:54;;;;;;;8.50;8.30;;;18.30;99.90;;;;;;5054107;28;20331;-83
2022/10/21 15:58:53;;;;;;;8.30;8.10;;;18.30;99.90;;;;;;5044883;28;20227;-86
2022/10/21 16:01:29;;;;;;;8.35;8.15;;;18.20;99.90;;;;;;5044077;28;20216;-86
2022/10/21 16:04:10;;;;;;;8.10;7.90;;;18.10;99.90;;;;;;5055788;28;20212;-86
2022/10/21 16:06:47;;;;;;;8.05;7.85;;;18.00;99.90;;;;;;5048105;28;20282;-86
2022/10/21 16:09:25;;;;;;;8.50;8.30;;;17.80;99.90;;;;;;5046500;28;20246;-85
2022/10/21 16:12:01;;;;;;;8.23;8.02;;;17.60;99.90;;;;;;5045327;28;20223;-87
2022/10/21 16:14:41;;;;;;;8.27;8.07;;;17.50;99.90;;;;;;5062527;28;20299;-86
2022/10/21 16:17:22;;;;;;;8.20;8.00;;;17.40;99.90;;;;;;5061679;28;20250;-86
2022/10/21 16:19:50;;;;;;;7.80;7.60;;;17.30;99.90;;;;;;5062091;28;20233;-86
2022/10/21 16:22:34;;;;;;;7.88;7.68;;;17.30;99.90;;;;;;5067816;28;20222;-85
2022/10/21 16:25:10;;;;;;;7.90;7.70;;;17.30;99.90;;;;;;5062685;28;20230;-86
2022/10/21 16:27:45;;;;;;;7.90;7.70;;;17.20;99.90;;;;;;5061666;28;20242;-86
2022/10/21 16:30:21;;;;;;;7.63;7.43;;;17.20;99.90;;;;;;5061787;28;20210;-86